Time;durP1;ratioP1;P1;durP2;ratioP2;P2;SDS_P1;SDS_P2;PMS_P1;PMS_P2;Temp;Humidity;BMP_temperature;BMP_pressure;BME280_temperature;BME280_humidity;BME280_pressure;Samples;Min_cycle;Max_cycle;Signal;HPM_P1;HPM_P2
2021/01/06 00:02:11;;;;;;;16.80;8.90;;;2.70;99.90;;;;;;12289958;28;20625;-88
2021/01/06 00:08:13;;;;;;;19.65;9.55;;;2.60;99.90;;;;;;12278625;28;20074;-86
2021/01/06 00:14:16;;;;;;;20.50;9.40;;;2.60;99.90;;;;;;12296899;28;20527;-86
2021/01/06 00:20:20;;;;;;;18.80;8.80;;;2.60;99.90;;;;;;12290322;28;20177;-86
2021/01/06 00:26:21;;;;;;;14.10;8.33;;;2.60;99.90;;;;;;12297705;28;20083;-85
2021/01/06 00:32:23;;;;;;;13.73;7.57;;;2.50;99.90;;;;;;12292570;28;20302;-86
2021/01/06 00:38:26;;;;;;;14.15;7.47;;;2.50;99.90;;;;;;12301313;28;20115;-85
2021/01/06 00:44:27;;;;;;;14.95;7.50;;;2.50;99.90;;;;;;12311726;28;20146;-86
2021/01/06 00:50:29;;;;;;;12.13;6.90;;;2.50;99.90;;;;;;12309605;28;20050;-85
2021/01/06 00:56:32;;;;;;;11.00;6.68;;;2.40;99.90;;;;;;12313998;28;20071;-85
2021/01/06 01:02:34;;;;;;;10.32;6.97;;;2.40;99.90;;;;;;12304265;28;20397;-87
2021/01/06 01:08:36;;;;;;;13.27;6.47;;;2.40;99.90;;;;;;12318620;28;20609;-85
2021/01/06 01:14:37;;;;;;;12.65;6.78;;;2.40;99.90;;;;;;12283289;28;20071;-85
2021/01/06 01:20:49;;;;;;;13.50;6.28;;;2.40;99.90;;;;;;12296001;28;20126;-86
2021/01/06 01:26:51;;;;;;;13.93;6.50;;;2.40;99.90;;;;;;12302157;28;20138;-84
2021/01/06 01:32:53;;;;;;;9.48;6.20;;;2.40;99.90;;;;;;12307401;28;20197;-86
2021/01/06 01:38:55;;;;;;;11.10;6.00;;;2.50;99.90;;;;;;12276757;28;20059;-85
2021/01/06 01:44:59;;;;;;;9.90;5.95;;;2.50;99.90;;;;;;12277892;28;20154;-85
2021/01/06 01:51:06;;;;;;;14.40;7.05;;;2.60;99.90;;;;;;12316764;28;20077;-84
2021/01/06 01:57:16;;;;;;;11.88;7.40;;;2.60;99.90;;;;;;12331317;28;20079;-84
2021/01/06 02:03:45;;;;;;;11.95;7.30;;;2.70;99.90;;;;;;12306067;28;20158;-84
2021/01/06 02:10:00;;;;;;;11.77;7.28;;;2.60;99.90;;;;;;12274460;28;20046;-85
2021/01/06 02:16:34;;;;;;;11.18;6.95;;;2.60;99.90;;;;;;12289259;28;20162;-86
2021/01/06 02:22:35;;;;;;;12.07;7.03;;;2.50;99.90;;;;;;12285189;28;20051;-84
2021/01/06 02:28:37;;;;;;;12.23;7.32;;;2.50;99.90;;;;;;12289827;28;20459;-84
2021/01/06 02:34:39;;;;;;;9.93;6.85;;;2.50;99.90;;;;;;12287379;28;20074;-85
2021/01/06 02:40:41;;;;;;;13.27;7.80;;;2.50;99.90;;;;;;12297602;28;20637;-84
2021/01/06 02:46:43;;;;;;;11.63;6.75;;;2.50;99.90;;;;;;12301872;28;20105;-84
2021/01/06 02:52:53;;;;;;;10.88;7.85;;;2.50;99.90;;;;;;12320639;28;20142;-84
2021/01/06 02:58:55;;;;;;;12.35;7.63;;;2.40;99.90;;;;;;12318136;28;20074;-84
2021/01/06 03:05:03;;;;;;;12.57;7.60;;;2.50;99.90;;;;;;12314852;28;20125;-83
2021/01/06 03:11:06;;;;;;;12.25;7.93;;;2.60;99.90;;;;;;12321743;28;20134;-84
2021/01/06 03:17:10;;;;;;;13.52;8.90;;;2.80;99.90;;;;;;12290961;28;20127;-85
2021/01/06 03:23:24;;;;;;;12.38;8.35;;;2.60;99.90;;;;;;12299036;28;20093;-84
2021/01/06 03:29:29;;;;;;;15.43;9.67;;;2.50;99.90;;;;;;12305640;28;20478;-85
2021/01/06 03:35:52;;;;;;;14.02;8.95;;;2.50;99.90;;;;;;12293050;28;20050;-86
2021/01/06 03:41:54;;;;;;;13.93;8.43;;;2.50;99.90;;;;;;12293597;28;20142;-85
2021/01/06 03:48:04;;;;;;;16.13;8.82;;;2.40;99.90;;;;;;12300442;28;20494;-85
2021/01/06 03:54:40;;;;;;;16.10;9.50;;;2.50;99.90;;;;;;12315125;28;20689;-85
2021/01/06 04:00:53;;;;;;;12.05;8.98;;;2.40;99.90;;;;;;12305685;28;20073;-85
2021/01/06 04:06:56;;;;;;;15.85;10.70;;;2.40;99.90;;;;;;12265079;28;20546;-85
2021/01/06 04:12:58;;;;;;;21.05;11.05;;;2.50;99.90;;;;;;12264350;28;20117;-84
2021/01/06 04:19:00;;;;;;;15.68;10.82;;;2.60;99.90;;;;;;12281654;28;21166;-85
2021/01/06 04:25:01;;;;;;;20.90;10.70;;;2.60;99.90;;;;;;12280366;28;20785;-86
2021/01/06 04:31:13;;;;;;;18.73;10.35;;;2.40;99.90;;;;;;12277014;28;20074;-85
2021/01/06 04:37:15;;;;;;;16.08;9.63;;;2.30;99.90;;;;;;12283847;28;20051;-87
2021/01/06 04:43:25;;;;;;;16.25;9.25;;;2.20;99.90;;;;;;12279994;28;20126;-85
2021/01/06 04:49:51;;;;;;;14.02;8.60;;;2.20;99.90;;;;;;12292058;28;20121;-85
2021/01/06 04:56:30;;;;;;;15.75;8.38;;;2.30;99.90;;;;;;12316965;28;20039;-84
2021/01/06 05:02:35;;;;;;;11.25;8.15;;;2.40;99.90;;;;;;12309570;28;20065;-85
2021/01/06 05:08:40;;;;;;;13.02;7.68;;;2.30;99.90;;;;;;12284159;28;20145;-85
2021/01/06 05:15:14;;;;;;;13.48;8.43;;;2.60;99.90;;;;;;12312000;28;20190;-85
2021/01/06 05:21:22;;;;;;;12.45;7.55;;;2.40;99.90;;;;;;12262159;28;20130;-84
2021/01/06 05:27:29;;;;;;;15.68;8.13;;;2.50;99.90;;;;;;12307226;28;20189;-85
2021/01/06 05:33:38;;;;;;;20.55;10.98;;;2.40;99.90;;;;;;12296593;28;20127;-85
2021/01/06 05:39:39;;;;;;;13.15;9.73;;;2.40;99.90;;;;;;12313511;28;20125;-86
2021/01/06 05:45:52;;;;;;;20.58;11.38;;;2.40;99.90;;;;;;12298959;28;20050;-85
2021/01/06 05:52:07;;;;;;;16.27;11.23;;;2.10;99.90;;;;;;12307098;28;20574;-83
2021/01/06 05:58:21;;;;;;;25.35;12.38;;;2.10;99.90;;;;;;12316627;28;20105;-87
2021/01/06 06:04:51;;;;;;;18.25;11.60;;;2.40;99.90;;;;;;12298336;28;20131;-85
2021/01/06 06:11:20;;;;;;;17.50;11.93;;;2.30;99.90;;;;;;12328828;28;20075;-84
2021/01/06 06:17:40;;;;;;;16.95;11.18;;;2.20;99.90;;;;;;12316456;28;20051;-84
2021/01/06 06:24:07;;;;;;;19.50;12.13;;;2.20;99.90;;;;;;12308964;28;20070;-85
2021/01/06 06:30:10;;;;;;;17.08;11.25;;;2.20;99.90;;;;;;12313259;28;20105;-84
2021/01/06 06:36:19;;;;;;;18.63;11.90;;;2.30;99.90;;;;;;12299216;28;20192;-84
2021/01/06 06:42:35;;;;;;;17.08;11.45;;;2.30;99.90;;;;;;12295020;28;20078;-84
2021/01/06 06:48:42;;;;;;;16.25;11.45;;;2.30;99.90;;;;;;12290756;28;20043;-84
2021/01/06 06:54:56;;;;;;;18.13;11.48;;;2.10;99.90;;;;;;12339203;28;20050;-84
2021/01/06 07:00:58;;;;;;;14.65;11.48;;;2.10;99.90;;;;;;12327094;28;20074;-86
2021/01/06 07:07:33;;;;;;;13.50;9.35;;;2.10;99.90;;;;;;12306649;28;20541;-85
2021/01/06 07:13:34;;;;;;;12.73;9.07;;;2.00;99.90;;;;;;12310361;28;20462;-84
2021/01/06 07:19:53;;;;;;;14.48;9.55;;;1.90;99.90;;;;;;12320220;28;20134;-85
2021/01/06 07:26:09;;;;;;;14.95;10.60;;;2.00;99.90;;;;;;12303331;28;20080;-85
2021/01/06 07:32:11;;;;;;;13.68;9.63;;;1.90;99.90;;;;;;12295302;28;20058;-85
2021/01/06 07:38:15;;;;;;;16.88;11.23;;;1.70;99.90;;;;;;12320936;28;20059;-85
2021/01/06 07:44:26;;;;;;;16.00;11.07;;;1.70;99.90;;;;;;12302501;28;20085;-84
2021/01/06 07:50:30;;;;;;;19.52;11.35;;;1.70;99.90;;;;;;12312271;28;20047;-84
2021/01/06 07:56:44;;;;;;;15.43;10.45;;;1.80;99.90;;;;;;12339514;28;20127;-85
2021/01/06 08:02:56;;;;;;;16.63;10.43;;;1.80;99.90;;;;;;12328161;28;20141;-84
2021/01/06 08:08:57;;;;;;;17.70;11.13;;;1.80;99.90;;;;;;12337295;28;20085;-86
2021/01/06 08:15:29;;;;;;;16.33;11.30;;;1.70;99.90;;;;;;12336757;28;20179;-84
2021/01/06 08:21:43;;;;;;;14.77;9.68;;;1.80;99.90;;;;;;12313551;28;20137;-84
2021/01/06 08:27:45;;;;;;;16.85;10.85;;;1.70;99.90;;;;;;12332985;28;21104;-84
2021/01/06 08:33:58;;;;;;;15.13;10.05;;;1.80;99.90;;;;;;12319911;28;20043;-84
2021/01/06 08:40:02;;;;;;;15.35;10.50;;;1.90;99.90;;;;;;12294938;28;20083;-85
2021/01/06 08:46:05;;;;;;;15.93;10.50;;;1.90;99.90;;;;;;12294976;28;20495;-84
2021/01/06 08:52:15;;;;;;;15.13;10.07;;;2.00;99.90;;;;;;12282685;28;20163;-84
2021/01/06 08:58:16;;;;;;;15.15;10.50;;;2.20;99.90;;;;;;12310738;28;20207;-85
2021/01/06 09:04:33;;;;;;;16.42;9.73;;;2.30;99.90;;;;;;12335921;28;20475;-85
2021/01/06 09:10:43;;;;;;;17.58;10.57;;;2.20;99.90;;;;;;12355271;28;20046;-84
2021/01/06 09:16:49;;;;;;;14.75;9.75;;;2.30;99.90;;;;;;12342027;28;20382;-84
2021/01/06 09:22:51;;;;;;;17.65;10.05;;;2.10;99.90;;;;;;12326783;28;20053;-84
2021/01/06 09:29:05;;;;;;;17.52;9.98;;;2.10;99.90;;;;;;12347904;28;20096;-84
2021/01/06 09:35:11;;;;;;;15.98;9.48;;;2.10;99.90;;;;;;12333025;28;20077;-85
2021/01/06 09:41:17;;;;;;;15.40;9.55;;;2.10;99.90;;;;;;12349374;28;20438;-84
2021/01/06 09:47:38;;;;;;;13.95;8.82;;;2.10;99.90;;;;;;12336344;28;20050;-84
2021/01/06 09:53:39;;;;;;;15.60;9.40;;;2.20;99.90;;;;;;12332279;28;20129;-85
2021/01/06 09:59:43;;;;;;;15.23;9.32;;;2.10;99.90;;;;;;12367925;28;20720;-84
2021/01/06 10:05:53;;;;;;;13.63;8.00;;;2.20;99.90;;;;;;12353110;28;20076;-85
2021/01/06 10:12:16;;;;;;;16.50;8.75;;;2.20;99.90;;;;;;12358630;28;20324;-85
2021/01/06 10:18:51;;;;;;;13.85;8.40;;;2.30;99.90;;;;;;12339563;28;20046;-84
2021/01/06 10:25:21;;;;;;;14.32;7.80;;;2.30;99.90;;;;;;12347416;28;20469;-83
2021/01/06 10:31:26;;;;;;;12.23;7.75;;;2.20;99.90;;;;;;12331635;28;20443;-83
2021/01/06 10:37:30;;;;;;;14.85;8.75;;;2.20;99.90;;;;;;12329411;28;21607;-84
2021/01/06 10:44:24;;;;;;;13.30;7.38;;;2.30;99.90;;;;;;12335202;28;20101;-84
2021/01/06 10:50:31;;;;;;;13.85;7.30;;;2.20;99.90;;;;;;12323574;28;20974;-83
2021/01/06 10:56:32;;;;;;;14.25;7.75;;;2.20;99.90;;;;;;12356416;28;20077;-84
2021/01/06 11:03:00;;;;;;;13.77;8.35;;;2.30;99.90;;;;;;12347385;28;20093;-83
2021/01/06 11:09:04;;;;;;;14.77;8.43;;;2.30;99.90;;;;;;12343786;28;20145;-85
2021/01/06 11:15:41;;;;;;;13.20;8.68;;;2.30;99.90;;;;;;12340030;28;20050;-83
2021/01/06 11:22:04;;;;;;;14.02;8.25;;;2.50;99.90;;;;;;12345321;28;20081;-84
2021/01/06 11:28:05;;;;;;;12.45;8.02;;;2.50;99.90;;;;;;12348421;28;20054;-84
2021/01/06 11:34:09;;;;;;;15.50;7.68;;;2.40;99.90;;;;;;12321779;28;20057;-84
2021/01/06 11:40:35;;;;;;;13.77;7.90;;;2.30;99.90;;;;;;12343607;28;20125;-84
2021/01/06 11:46:52;;;;;;;14.95;8.57;;;2.30;99.90;;;;;;12331024;28;20076;-84
2021/01/06 11:53:27;;;;;;;11.98;7.28;;;2.30;99.90;;;;;;12334888;28;20039;-84
2021/01/06 11:59:29;;;;;;;12.68;8.15;;;2.30;99.90;;;;;;12311066;28;20558;-84
2021/01/06 12:05:35;;;;;;;14.52;8.48;;;2.20;99.90;;;;;;12325325;28;20050;-85
2021/01/06 12:11:48;;;;;;;12.52;7.95;;;2.20;99.90;;;;;;12346435;28;20475;-83
2021/01/06 12:17:53;;;;;;;12.98;7.78;;;2.20;99.90;;;;;;12331855;28;20094;-84
2021/01/06 12:24:17;;;;;;;13.05;8.50;;;2.20;99.90;;;;;;12312569;28;20161;-84
2021/01/06 12:30:18;;;;;;;12.48;8.45;;;2.20;99.90;;;;;;12351625;28;20551;-85
2021/01/06 12:36:24;;;;;;;15.32;8.95;;;2.30;99.90;;;;;;12328468;28;20562;-84
2021/01/06 12:42:50;;;;;;;15.15;9.15;;;2.30;99.90;;;;;;12303556;28;20070;-83
2021/01/06 12:48:56;;;;;;;13.98;9.68;;;2.30;99.90;;;;;;12346694;28;20050;-85
2021/01/06 12:55:18;;;;;;;16.38;9.50;;;2.30;99.90;;;;;;12322826;28;20050;-85
2021/01/06 13:01:25;;;;;;;14.00;9.73;;;2.30;99.90;;;;;;12325590;28;20470;-84
2021/01/06 13:07:31;;;;;;;15.38;10.07;;;2.40;99.90;;;;;;12359934;28;20134;-87
2021/01/06 13:13:36;;;;;;;15.20;9.77;;;2.40;99.90;;;;;;12359462;28;20651;-84
2021/01/06 13:19:58;;;;;;;16.25;9.70;;;2.30;99.90;;;;;;12324834;28;20161;-85
2021/01/06 13:26:24;;;;;;;16.05;10.35;;;2.40;99.90;;;;;;12334955;28;20080;-85
2021/01/06 13:33:20;;;;;;;13.10;9.25;;;2.30;99.90;;;;;;12347423;28;20085;-85
2021/01/06 13:39:24;;;;;;;15.63;10.70;;;2.10;99.90;;;;;;12249984;28;20050;-85
2021/01/06 13:45:37;;;;;;;18.77;10.97;;;2.10;99.90;;;;;;12294096;28;20087;-85
2021/01/06 13:51:50;;;;;;;16.02;9.80;;;2.00;99.90;;;;;;12300911;28;20048;-87
2021/01/06 13:57:58;;;;;;;16.80;11.05;;;1.90;99.90;;;;;;12297092;28;20137;-86
2021/01/06 14:04:06;;;;;;;15.32;10.55;;;2.10;99.90;;;;;;12285910;28;20087;-85
2021/01/06 14:10:41;;;;;;;18.33;11.45;;;1.90;99.90;;;;;;12292793;28;20087;-86
2021/01/06 14:17:14;;;;;;;18.55;11.55;;;1.90;99.90;;;;;;12282760;28;20511;-84
2021/01/06 14:23:45;;;;;;;19.10;11.95;;;2.00;99.90;;;;;;12298548;28;20062;-87
2021/01/06 14:30:09;;;;;;;20.05;12.65;;;1.90;99.90;;;;;;12295549;28;20059;-85
2021/01/06 14:36:25;;;;;;;20.55;11.82;;;2.00;99.90;;;;;;12287931;28;20522;-85
2021/01/06 14:42:39;;;;;;;22.75;11.73;;;1.90;99.90;;;;;;12302913;28;20483;-85
2021/01/06 14:48:52;;;;;;;15.68;11.00;;;1.90;99.90;;;;;;12291987;28;20082;-85
2021/01/06 14:54:58;;;;;;;16.25;9.93;;;1.80;99.90;;;;;;12303204;28;20058;-85
2021/01/06 15:01:05;;;;;;;21.60;11.13;;;1.70;99.90;;;;;;12298486;28;20546;-85
2021/01/06 15:07:39;;;;;;;16.88;10.30;;;1.60;99.90;;;;;;12277538;28;20055;-84
2021/01/06 15:13:42;;;;;;;15.85;10.48;;;1.80;99.90;;;;;;12308966;28;20600;-85
2021/01/06 15:19:46;;;;;;;15.32;10.77;;;1.60;99.90;;;;;;12290959;28;20130;-85
2021/01/06 15:25:52;;;;;;;16.02;9.70;;;1.70;99.90;;;;;;12284494;28;20535;-84
2021/01/06 15:32:02;;;;;;;15.80;8.75;;;1.70;99.90;;;;;;12319297;28;20101;-84
2021/01/06 15:38:12;;;;;;;12.00;7.55;;;1.50;99.90;;;;;;12337795;28;20146;-85
2021/01/06 15:44:22;;;;;;;18.30;10.40;;;1.60;99.90;;;;;;12336354;28;20059;-86
2021/01/06 15:50:26;;;;;;;13.75;8.63;;;1.50;99.90;;;;;;12335765;28;20134;-85
2021/01/06 15:56:32;;;;;;;13.10;8.77;;;1.50;99.90;;;;;;12341799;28;20132;-85
2021/01/06 16:02:34;;;;;;;13.18;8.48;;;1.50;99.90;;;;;;12327976;28;20502;-85
2021/01/06 16:08:37;;;;;;;14.00;8.38;;;1.40;99.90;;;;;;12335367;28;20098;-85
2021/01/06 16:14:42;;;;;;;11.80;7.50;;;1.30;99.90;;;;;;12346949;28;20516;-85
2021/01/06 16:20:43;;;;;;;11.65;6.95;;;1.30;99.90;;;;;;12334555;28;20066;-85
2021/01/06 16:26:51;;;;;;;12.27;7.25;;;1.40;99.90;;;;;;12310096;28;20093;-85
2021/01/06 16:32:58;;;;;;;12.27;8.57;;;1.40;99.90;;;;;;12316398;28;20053;-85
2021/01/06 16:39:26;;;;;;;14.32;7.82;;;1.30;99.90;;;;;;12335780;28;20057;-85
2021/01/06 16:45:31;;;;;;;14.85;8.52;;;1.40;99.90;;;;;;12335594;28;20544;-85
2021/01/06 16:51:41;;;;;;;;;;;1.40;99.90;;;;;;12319255;28;20594;-86
2021/01/06 16:57:50;;;;;;;17.02;8.77;;;1.30;99.90;;;;;;12355417;28;19926;-86
2021/01/06 17:03:56;;;;;;;14.27;9.48;;;1.40;99.90;;;;;;12344951;28;20043;-86
2021/01/06 17:10:00;;;;;;;15.35;8.93;;;1.30;99.90;;;;;;12336419;28;20051;-86
2021/01/06 17:16:03;;;;;;;14.75;9.60;;;1.40;99.90;;;;;;12358682;28;20078;-86
2021/01/06 17:22:06;;;;;;;15.88;8.73;;;1.30;99.90;;;;;;12346627;28;20139;-84
2021/01/06 17:28:14;;;;;;;14.80;8.60;;;1.30;99.90;;;;;;12339995;28;20078;-85
2021/01/06 17:34:19;;;;;;;15.50;8.70;;;1.20;99.90;;;;;;12334481;28;20043;-87
2021/01/06 17:40:23;;;;;;;15.07;8.65;;;1.30;99.90;;;;;;12344700;28;20082;-85
2021/01/06 17:46:25;;;;;;;12.63;8.27;;;1.20;99.90;;;;;;12346885;28;20058;-86
2021/01/06 17:52:26;;;;;;;13.02;8.05;;;1.20;99.90;;;;;;12341606;28;20487;-85
2021/01/06 17:58:29;;;;;;;13.90;8.10;;;1.20;99.90;;;;;;12342092;28;20133;-85
2021/01/06 18:04:32;;;;;;;13.57;8.07;;;1.10;99.90;;;;;;12334243;28;20483;-85
2021/01/06 18:10:41;;;;;;;15.45;9.95;;;1.20;99.90;;;;;;12342360;28;20046;-85
2021/01/06 18:16:43;;;;;;;14.82;9.63;;;1.20;99.90;;;;;;12340169;28;20086;-85
2021/01/06 18:22:52;;;;;;;17.27;10.55;;;1.20;99.90;;;;;;12353261;28;20486;-86
2021/01/06 18:29:11;;;;;;;14.85;9.68;;;1.20;99.90;;;;;;12332543;28;20050;-86
2021/01/06 18:35:15;;;;;;;17.58;10.23;;;1.20;99.90;;;;;;12297187;28;20043;-85
2021/01/06 18:41:23;;;;;;;18.95;11.20;;;1.10;99.90;;;;;;12289301;28;20051;-85
2021/01/06 18:47:25;;;;;;;18.05;11.80;;;1.20;99.90;;;;;;12296974;28;20078;-86
2021/01/06 18:53:27;;;;;;;19.05;12.20;;;1.20;99.90;;;;;;12290240;28;20185;-86
2021/01/06 18:59:30;;;;;;;20.90;11.70;;;1.30;99.90;;;;;;12294904;28;20070;-86
2021/01/06 19:05:48;;;;;;;16.15;10.77;;;1.20;99.90;;;;;;12278420;28;20043;-86
2021/01/06 19:12:10;;;;;;;18.95;11.30;;;1.20;99.90;;;;;;12281611;28;20078;-85
2021/01/06 19:18:38;;;;;;;19.48;12.18;;;1.10;99.90;;;;;;12293056;28;20050;-85
2021/01/06 19:24:39;;;;;;;19.27;11.80;;;1.10;99.90;;;;;;12296545;28;20047;-85
2021/01/06 19:30:46;;;;;;;18.77;10.95;;;1.10;99.90;;;;;;12296050;28;20153;-86
2021/01/06 19:36:48;;;;;;;23.42;12.27;;;1.10;99.90;;;;;;12287642;28;20403;-85
2021/01/06 19:42:54;;;;;;;18.08;10.60;;;1.20;99.90;;;;;;12301187;28;20518;-86
2021/01/06 19:49:08;;;;;;;16.30;10.68;;;1.20;99.90;;;;;;12291872;28;20047;-85
2021/01/06 19:55:11;;;;;;;16.93;10.87;;;1.10;99.90;;;;;;12297773;28;20051;-85
2021/01/06 20:01:21;;;;;;;16.60;10.43;;;1.10;99.90;;;;;;12296980;28;20185;-85
2021/01/06 20:07:23;;;;;;;16.13;9.98;;;1.10;99.90;;;;;;12275079;28;20109;-85
2021/01/06 20:13:41;;;;;;;16.90;9.88;;;1.20;99.90;;;;;;12279859;28;20571;-86
2021/01/06 20:19:42;;;;;;;17.15;10.40;;;1.20;99.90;;;;;;12306467;28;20463;-85
2021/01/06 20:25:45;;;;;;;19.70;11.35;;;1.20;99.90;;;;;;12311217;28;20125;-86
2021/01/06 20:31:46;;;;;;;17.50;11.52;;;1.20;99.90;;;;;;12312600;28;21141;-84
2021/01/06 20:37:48;;;;;;;18.83;11.63;;;1.20;99.90;;;;;;12312338;28;20483;-85
2021/01/06 20:43:49;;;;;;;15.80;10.13;;;1.20;99.90;;;;;;12279330;28;20507;-85
2021/01/06 20:49:50;;;;;;;21.55;11.57;;;1.20;99.90;;;;;;12290480;28;20109;-85
2021/01/06 20:55:52;;;;;;;17.55;11.45;;;1.10;99.90;;;;;;12311478;28;20214;-85
2021/01/06 21:01:57;;;;;;;22.30;13.15;;;1.20;99.90;;;;;;12310067;28;20043;-86
2021/01/06 21:07:58;;;;;;;19.98;12.25;;;1.20;99.90;;;;;;12311579;28;20081;-86
2021/01/06 21:13:59;;;;;;;21.25;12.32;;;1.20;99.90;;;;;;12336138;28;20165;-86
2021/01/06 21:20:01;;;;;;;21.77;12.18;;;1.30;99.90;;;;;;12321397;28;20080;-84
2021/01/06 21:26:03;;;;;;;16.95;10.75;;;1.20;99.90;;;;;;12335270;28;20082;-85
2021/01/06 21:32:04;;;;;;;16.25;10.45;;;1.30;99.90;;;;;;12327173;28;20086;-85
2021/01/06 21:38:08;;;;;;;16.00;10.00;;;1.20;99.90;;;;;;12333565;28;20400;-84
2021/01/06 21:44:10;;;;;;;17.23;10.75;;;1.20;99.90;;;;;;12315672;28;20153;-85
2021/01/06 21:50:11;;;;;;;18.67;11.57;;;1.20;99.90;;;;;;12283378;28;20391;-85
2021/01/06 21:56:31;;;;;;;17.25;10.68;;;1.30;99.90;;;;;;12325785;28;20051;-86
2021/01/06 22:02:33;;;;;;;18.57;11.47;;;1.10;99.90;;;;;;12308464;28;20450;-86
2021/01/06 22:08:34;;;;;;;16.77;10.13;;;1.20;99.90;;;;;;12326385;28;20047;-85
2021/01/06 22:14:36;;;;;;;17.60;10.27;;;1.20;99.90;;;;;;12331607;28;20050;-87
2021/01/06 22:20:37;;;;;;;16.27;10.30;;;1.10;99.90;;;;;;12315743;28;20463;-85
2021/01/06 22:26:38;;;;;;;17.70;10.52;;;1.20;99.90;;;;;;12304084;28;20141;-86
2021/01/06 22:32:39;;;;;;;17.45;10.85;;;1.10;99.90;;;;;;12316635;28;20642;-86
2021/01/06 22:38:41;;;;;;;17.05;11.15;;;1.10;99.90;;;;;;12307637;28;20093;-86
2021/01/06 22:44:42;;;;;;;15.40;9.82;;;1.20;99.90;;;;;;12290463;28;20124;-85
2021/01/06 22:50:43;;;;;;;14.98;9.75;;;1.10;99.90;;;;;;12335891;28;20487;-86
2021/01/06 22:56:45;;;;;;;16.75;9.57;;;1.20;99.90;;;;;;12345096;28;20129;-85
2021/01/06 23:02:46;;;;;;;14.63;9.82;;;1.20;99.90;;;;;;12353247;28;20047;-86
2021/01/06 23:08:48;;;;;;;14.40;8.88;;;1.20;99.90;;;;;;12350681;28;20086;-87
2021/01/06 23:14:50;;;;;;;15.90;9.45;;;1.10;99.90;;;;;;12315897;28;20046;-85
2021/01/06 23:20:51;;;;;;;15.60;8.95;;;1.20;99.90;;;;;;12294562;28;20170;-87
2021/01/06 23:26:53;;;;;;;18.27;10.52;;;1.10;99.90;;;;;;12341888;28;20510;-86
2021/01/06 23:32:54;;;;;;;14.80;9.63;;;1.10;99.90;;;;;;12332099;28;20101;-86
2021/01/06 23:38:55;;;;;;;14.13;8.88;;;1.20;99.90;;;;;;12348072;28;20117;-86
2021/01/06 23:44:57;;;;;;;15.52;9.85;;;1.10;99.90;;;;;;12288275;28;20578;-86
2021/01/06 23:50:58;;;;;;;14.65;9.13;;;1.10;99.90;;;;;;12302721;28;20427;-86
2021/01/06 23:57:00;;;;;;;16.55;9.27;;;1.10;99.90;;;;;;12313506;28;20105;-88
